sensor_id;sensor_type;location;lat;lon;timestamp;P1;durP1;ratioP1;P2;durP2;ratioP2
8139;SDS011;4111;50.972;7.072;2023-05-10T00:01:55;6.80;;;6.17;;
8139;SDS011;4111;50.972;7.072;2023-05-10T00:04:22;6.77;;;6.27;;
8139;SDS011;4111;50.972;7.072;2023-05-10T00:06:48;7.30;;;6.80;;
8139;SDS011;4111;50.972;7.072;2023-05-10T00:09:15;6.93;;;6.37;;
8139;SDS011;4111;50.972;7.072;2023-05-10T00:11:41;9.50;;;7.10;;
8139;SDS011;4111;50.972;7.072;2023-05-10T00:14:08;7.50;;;6.90;;
8139;SDS011;4111;50.972;7.072;2023-05-10T00:16:34;7.10;;;6.50;;
8139;SDS011;4111;50.972;7.072;2023-05-10T00:19:00;7.33;;;6.73;;
8139;SDS011;4111;50.972;7.072;2023-05-10T00:21:27;7.37;;;6.77;;
8139;SDS011;4111;50.972;7.072;2023-05-10T00:23:54;7.10;;;6.53;;
8139;SDS011;4111;50.972;7.072;2023-05-10T00:26:21;8.00;;;7.20;;
8139;SDS011;4111;50.972;7.072;2023-05-10T00:28:47;7.63;;;7.03;;
8139;SDS011;4111;50.972;7.072;2023-05-10T00:31:14;7.97;;;7.27;;
8139;SDS011;4111;50.972;7.072;2023-05-10T00:33:40;8.03;;;7.23;;
8139;SDS011;4111;50.972;7.072;2023-05-10T00:36:07;8.23;;;7.57;;
8139;SDS011;4111;50.972;7.072;2023-05-10T00:38:33;8.00;;;7.30;;
8139;SDS011;4111;50.972;7.072;2023-05-10T00:41:00;10.33;;;8.67;;
8139;SDS011;4111;50.972;7.072;2023-05-10T00:43:27;8.57;;;7.87;;
8139;SDS011;4111;50.972;7.072;2023-05-10T00:45:53;9.80;;;8.90;;
8139;SDS011;4111;50.972;7.072;2023-05-10T00:48:20;8.80;;;8.03;;
8139;SDS011;4111;50.972;7.072;2023-05-10T00:50:48;8.77;;;8.07;;
8139;SDS011;4111;50.972;7.072;2023-05-10T00:53:14;8.87;;;8.17;;
8139;SDS011;4111;50.972;7.072;2023-05-10T00:55:42;9.67;;;8.77;;
8139;SDS011;4111;50.972;7.072;2023-05-10T00:58:09;9.23;;;8.33;;
8139;SDS011;4111;50.972;7.072;2023-05-10T01:00:36;9.73;;;8.83;;
8139;SDS011;4111;50.972;7.072;2023-05-10T01:03:04;9.93;;;8.93;;
8139;SDS011;4111;50.972;7.072;2023-05-10T01:05:31;10.47;;;9.20;;
8139;SDS011;4111;50.972;7.072;2023-05-10T01:07:58;10.13;;;9.20;;
8139;SDS011;4111;50.972;7.072;2023-05-10T01:10:24;10.70;;;9.60;;
8139;SDS011;4111;50.972;7.072;2023-05-10T01:12:51;11.00;;;10.00;;
8139;SDS011;4111;50.972;7.072;2023-05-10T01:15:17;11.93;;;10.73;;
8139;SDS011;4111;50.972;7.072;2023-05-10T01:17:46;12.00;;;10.80;;
8139;SDS011;4111;50.972;7.072;2023-05-10T01:20:14;12.10;;;10.90;;
8139;SDS011;4111;50.972;7.072;2023-05-10T01:22:50;12.73;;;11.63;;
8139;SDS011;4111;50.972;7.072;2023-05-10T01:28:25;12.03;;;10.93;;
8139;SDS011;4111;50.972;7.072;2023-05-10T01:34:25;12.53;;;11.23;;
8139;SDS011;4111;50.972;7.072;2023-05-10T01:37:06;13.77;;;11.33;;
8139;SDS011;4111;50.972;7.072;2023-05-10T01:39:44;12.33;;;11.03;;
8139;SDS011;4111;50.972;7.072;2023-05-10T01:42:17;13.17;;;11.87;;
8139;SDS011;4111;50.972;7.072;2023-05-10T01:50:04;13.53;;;12.23;;
8139;SDS011;4111;50.972;7.072;2023-05-10T01:52:36;12.20;;;11.00;;
8139;SDS011;4111;50.972;7.072;2023-05-10T01:55:11;12.83;;;11.57;;
8139;SDS011;4111;50.972;7.072;2023-05-10T01:57:42;12.33;;;11.03;;
8139;SDS011;4111;50.972;7.072;2023-05-10T02:00:10;13.10;;;11.63;;
8139;SDS011;4111;50.972;7.072;2023-05-10T02:02:39;12.30;;;11.00;;
8139;SDS011;4111;50.972;7.072;2023-05-10T02:05:08;12.70;;;11.40;;
8139;SDS011;4111;50.972;7.072;2023-05-10T02:07:37;12.30;;;10.53;;
8139;SDS011;4111;50.972;7.072;2023-05-10T02:10:06;9.50;;;8.53;;
8139;SDS011;4111;50.972;7.072;2023-05-10T02:12:35;9.20;;;8.30;;
8139;SDS011;4111;50.972;7.072;2023-05-10T02:15:03;7.73;;;6.93;;
8139;SDS011;4111;50.972;7.072;2023-05-10T02:17:32;8.80;;;7.77;;
8139;SDS011;4111;50.972;7.072;2023-05-10T02:19:59;8.60;;;7.80;;
8139;SDS011;4111;50.972;7.072;2023-05-10T02:22:27;7.83;;;7.03;;
8139;SDS011;4111;50.972;7.072;2023-05-10T02:24:55;7.07;;;6.47;;
8139;SDS011;4111;50.972;7.072;2023-05-10T02:27:24;10.60;;;6.90;;
8139;SDS011;4111;50.972;7.072;2023-05-10T02:29:54;6.63;;;6.03;;
8139;SDS011;4111;50.972;7.072;2023-05-10T02:32:21;6.33;;;5.73;;
8139;SDS011;4111;50.972;7.072;2023-05-10T02:34:50;6.13;;;5.63;;
8139;SDS011;4111;50.972;7.072;2023-05-10T02:37:19;8.43;;;6.37;;
8139;SDS011;4111;50.972;7.072;2023-05-10T02:39:47;6.50;;;5.60;;
8139;SDS011;4111;50.972;7.072;2023-05-10T02:42:16;7.43;;;6.10;;
8139;SDS011;4111;50.972;7.072;2023-05-10T02:44:47;7.63;;;5.93;;
8139;SDS011;4111;50.972;7.072;2023-05-10T02:47:17;7.10;;;6.30;;
8139;SDS011;4111;50.972;7.072;2023-05-10T02:49:44;6.83;;;6.10;;
8139;SDS011;4111;50.972;7.072;2023-05-10T02:52:11;6.77;;;6.17;;
8139;SDS011;4111;50.972;7.072;2023-05-10T02:54:45;6.60;;;5.93;;
8139;SDS011;4111;50.972;7.072;2023-05-10T02:57:16;7.03;;;5.97;;
8139;SDS011;4111;50.972;7.072;2023-05-10T02:59:48;6.87;;;6.17;;
8139;SDS011;4111;50.972;7.072;2023-05-10T03:02:15;9.67;;;5.90;;
8139;SDS011;4111;50.972;7.072;2023-05-10T03:04:41;7.23;;;5.97;;
8139;SDS011;4111;50.972;7.072;2023-05-10T03:07:08;7.00;;;6.30;;
8139;SDS011;4111;50.972;7.072;2023-05-10T03:09:35;7.10;;;6.40;;
8139;SDS011;4111;50.972;7.072;2023-05-10T03:12:15;7.93;;;5.70;;
8139;SDS011;4111;50.972;7.072;2023-05-10T03:18:18;6.20;;;5.57;;
8139;SDS011;4111;50.972;7.072;2023-05-10T03:20:36;6.73;;;5.90;;
8139;SDS011;4111;50.972;7.072;2023-05-10T03:23:09;5.60;;;5.10;;
8139;SDS011;4111;50.972;7.072;2023-05-10T03:25:39;8.80;;;5.67;;
8139;SDS011;4111;50.972;7.072;2023-05-10T03:28:09;6.67;;;5.43;;
8139;SDS011;4111;50.972;7.072;2023-05-10T03:30:36;6.80;;;6.10;;
8139;SDS011;4111;50.972;7.072;2023-05-10T03:33:04;12.37;;;5.70;;
8139;SDS011;4111;50.972;7.072;2023-05-10T03:35:32;8.23;;;5.97;;
8139;SDS011;4111;50.972;7.072;2023-05-10T03:37:58;6.47;;;5.77;;
8139;SDS011;4111;50.972;7.072;2023-05-10T03:40:25;6.40;;;5.67;;
8139;SDS011;4111;50.972;7.072;2023-05-10T03:42:55;6.43;;;5.93;;
8139;SDS011;4111;50.972;7.072;2023-05-10T03:45:21;6.80;;;6.10;;
8139;SDS011;4111;50.972;7.072;2023-05-10T03:47:48;12.67;;;7.10;;
8139;SDS011;4111;50.972;7.072;2023-05-10T03:50:14;6.80;;;6.17;;
8139;SDS011;4111;50.972;7.072;2023-05-10T03:52:41;7.30;;;6.60;;
8139;SDS011;4111;50.972;7.072;2023-05-10T03:55:08;7.30;;;6.60;;
8139;SDS011;4111;50.972;7.072;2023-05-10T03:57:35;8.13;;;6.60;;
8139;SDS011;4111;50.972;7.072;2023-05-10T04:00:01;12.63;;;7.20;;
8139;SDS011;4111;50.972;7.072;2023-05-10T04:02:28;7.57;;;6.77;;
8139;SDS011;4111;50.972;7.072;2023-05-10T04:04:56;13.13;;;8.07;;
8139;SDS011;4111;50.972;7.072;2023-05-10T04:07:22;9.70;;;8.07;;
8139;SDS011;4111;50.972;7.072;2023-05-10T04:09:49;9.27;;;8.23;;
8139;SDS011;4111;50.972;7.072;2023-05-10T04:12:16;11.30;;;8.30;;
8139;SDS011;4111;50.972;7.072;2023-05-10T04:14:42;9.67;;;8.73;;
8139;SDS011;4111;50.972;7.072;2023-05-10T04:17:09;9.17;;;8.00;;
8139;SDS011;4111;50.972;7.072;2023-05-10T04:19:36;10.03;;;9.00;;
8139;SDS011;4111;50.972;7.072;2023-05-10T04:22:03;11.63;;;9.27;;
8139;SDS011;4111;50.972;7.072;2023-05-10T04:24:29;10.93;;;9.60;;
8139;SDS011;4111;50.972;7.072;2023-05-10T04:26:56;11.70;;;10.00;;
8139;SDS011;4111;50.972;7.072;2023-05-10T04:29:23;13.97;;;10.53;;
8139;SDS011;4111;50.972;7.072;2023-05-10T04:31:49;12.30;;;10.03;;
8139;SDS011;4111;50.972;7.072;2023-05-10T04:34:17;11.97;;;9.83;;
8139;SDS011;4111;50.972;7.072;2023-05-10T04:36:43;12.33;;;10.10;;
8139;SDS011;4111;50.972;7.072;2023-05-10T04:39:10;11.60;;;10.13;;
8139;SDS011;4111;50.972;7.072;2023-05-10T04:41:37;10.97;;;9.73;;
8139;SDS011;4111;50.972;7.072;2023-05-10T04:44:04;15.17;;;11.37;;
8139;SDS011;4111;50.972;7.072;2023-05-10T04:46:30;13.63;;;10.60;;
8139;SDS011;4111;50.972;7.072;2023-05-10T04:48:57;13.13;;;10.80;;
8139;SDS011;4111;50.972;7.072;2023-05-10T04:51:23;11.63;;;10.00;;
8139;SDS011;4111;50.972;7.072;2023-05-10T04:53:50;13.80;;;10.43;;
8139;SDS011;4111;50.972;7.072;2023-05-10T04:56:30;15.27;;;10.73;;
8139;SDS011;4111;50.972;7.072;2023-05-10T04:58:57;13.47;;;10.93;;
8139;SDS011;4111;50.972;7.072;2023-05-10T05:01:23;15.37;;;12.47;;
8139;SDS011;4111;50.972;7.072;2023-05-10T05:03:50;15.87;;;12.97;;
8139;SDS011;4111;50.972;7.072;2023-05-10T05:06:19;16.33;;;14.30;;
8139;SDS011;4111;50.972;7.072;2023-05-10T05:08:47;20.63;;;14.40;;
8139;SDS011;4111;50.972;7.072;2023-05-10T05:11:15;16.83;;;14.80;;
8139;SDS011;4111;50.972;7.072;2023-05-10T05:13:41;19.10;;;14.50;;
8139;SDS011;4111;50.972;7.072;2023-05-10T05:16:08;21.90;;;16.17;;
8139;SDS011;4111;50.972;7.072;2023-05-10T05:18:34;21.70;;;16.27;;
8139;SDS011;4111;50.972;7.072;2023-05-10T05:21:01;22.67;;;15.80;;
8139;SDS011;4111;50.972;7.072;2023-05-10T05:23:28;19.67;;;15.70;;
8139;SDS011;4111;50.972;7.072;2023-05-10T05:25:54;20.03;;;15.77;;
8139;SDS011;4111;50.972;7.072;2023-05-10T05:28:21;23.60;;;15.77;;
8139;SDS011;4111;50.972;7.072;2023-05-10T05:30:47;18.80;;;15.80;;
8139;SDS011;4111;50.972;7.072;2023-05-10T05:33:20;21.67;;;15.33;;
8139;SDS011;4111;50.972;7.072;2023-05-10T05:35:47;20.10;;;15.23;;
8139;SDS011;4111;50.972;7.072;2023-05-10T05:38:16;19.10;;;15.30;;
8139;SDS011;4111;50.972;7.072;2023-05-10T05:40:43;20.67;;;14.73;;
8139;SDS011;4111;50.972;7.072;2023-05-10T05:43:11;18.43;;;15.03;;
8139;SDS011;4111;50.972;7.072;2023-05-10T05:45:38;18.20;;;14.33;;
8139;SDS011;4111;50.972;7.072;2023-05-10T05:48:04;19.10;;;13.90;;
8139;SDS011;4111;50.972;7.072;2023-05-10T05:50:31;16.60;;;12.60;;
8139;SDS011;4111;50.972;7.072;2023-05-10T05:52:57;14.43;;;12.07;;
8139;SDS011;4111;50.972;7.072;2023-05-10T05:55:24;21.83;;;12.03;;
8139;SDS011;4111;50.972;7.072;2023-05-10T05:57:51;13.40;;;11.50;;
8139;SDS011;4111;50.972;7.072;2023-05-10T06:00:18;17.33;;;11.63;;
8139;SDS011;4111;50.972;7.072;2023-05-10T06:02:44;15.50;;;11.23;;
8139;SDS011;4111;50.972;7.072;2023-05-10T06:05:11;14.73;;;11.13;;
8139;SDS011;4111;50.972;7.072;2023-05-10T06:07:37;16.87;;;11.33;;
8139;SDS011;4111;50.972;7.072;2023-05-10T06:10:04;17.83;;;11.33;;
8139;SDS011;4111;50.972;7.072;2023-05-10T06:12:31;17.87;;;12.30;;
8139;SDS011;4111;50.972;7.072;2023-05-10T06:14:58;17.70;;;12.30;;
8139;SDS011;4111;50.972;7.072;2023-05-10T06:17:24;17.80;;;12.53;;
8139;SDS011;4111;50.972;7.072;2023-05-10T06:19:51;16.80;;;12.60;;
8139;SDS011;4111;50.972;7.072;2023-05-10T06:22:17;18.33;;;12.97;;
8139;SDS011;4111;50.972;7.072;2023-05-10T06:24:44;21.00;;;13.40;;
8139;SDS011;4111;50.972;7.072;2023-05-10T06:27:10;15.53;;;12.40;;
8139;SDS011;4111;50.972;7.072;2023-05-10T06:29:37;16.53;;;12.73;;
8139;SDS011;4111;50.972;7.072;2023-05-10T06:32:03;20.80;;;12.97;;
8139;SDS011;4111;50.972;7.072;2023-05-10T06:34:30;19.70;;;12.63;;
8139;SDS011;4111;50.972;7.072;2023-05-10T06:36:56;17.87;;;13.60;;
8139;SDS011;4111;50.972;7.072;2023-05-10T06:39:23;13.90;;;12.03;;
8139;SDS011;4111;50.972;7.072;2023-05-10T06:41:49;20.13;;;12.67;;
8139;SDS011;4111;50.972;7.072;2023-05-10T06:44:16;16.07;;;11.07;;
8139;SDS011;4111;50.972;7.072;2023-05-10T06:46:42;16.13;;;11.23;;
8139;SDS011;4111;50.972;7.072;2023-05-10T06:49:09;13.87;;;11.30;;
8139;SDS011;4111;50.972;7.072;2023-05-10T06:51:35;16.10;;;11.20;;
8139;SDS011;4111;50.972;7.072;2023-05-10T06:54:02;14.30;;;11.40;;
8139;SDS011;4111;50.972;7.072;2023-05-10T06:56:29;15.70;;;11.33;;
8139;SDS011;4111;50.972;7.072;2023-05-10T06:58:55;17.23;;;12.30;;
8139;SDS011;4111;50.972;7.072;2023-05-10T07:01:22;15.63;;;11.53;;
8139;SDS011;4111;50.972;7.072;2023-05-10T07:03:48;17.50;;;11.60;;
8139;SDS011;4111;50.972;7.072;2023-05-10T07:06:15;16.77;;;12.37;;
8139;SDS011;4111;50.972;7.072;2023-05-10T07:08:58;15.40;;;12.03;;
8139;SDS011;4111;50.972;7.072;2023-05-10T07:11:24;16.23;;;12.40;;
8139;SDS011;4111;50.972;7.072;2023-05-10T07:13:51;14.27;;;12.60;;
8139;SDS011;4111;50.972;7.072;2023-05-10T07:16:17;18.17;;;12.73;;
8139;SDS011;4111;50.972;7.072;2023-05-10T07:18:44;17.77;;;11.77;;
8139;SDS011;4111;50.972;7.072;2023-05-10T07:21:10;16.40;;;12.53;;
8139;SDS011;4111;50.972;7.072;2023-05-10T07:23:37;24.10;;;13.20;;
8139;SDS011;4111;50.972;7.072;2023-05-10T07:26:03;18.73;;;13.53;;
8139;SDS011;4111;50.972;7.072;2023-05-10T07:28:30;15.70;;;13.17;;
8139;SDS011;4111;50.972;7.072;2023-05-10T07:30:56;16.03;;;12.30;;
8139;SDS011;4111;50.972;7.072;2023-05-10T07:33:23;19.17;;;13.53;;
8139;SDS011;4111;50.972;7.072;2023-05-10T07:35:49;20.63;;;13.33;;
8139;SDS011;4111;50.972;7.072;2023-05-10T07:38:16;19.23;;;13.77;;
8139;SDS011;4111;50.972;7.072;2023-05-10T07:40:43;16.80;;;12.47;;
8139;SDS011;4111;50.972;7.072;2023-05-10T07:43:10;16.27;;;12.50;;
8139;SDS011;4111;50.972;7.072;2023-05-10T07:45:36;17.30;;;11.97;;
8139;SDS011;4111;50.972;7.072;2023-05-10T07:48:03;18.03;;;11.40;;
8139;SDS011;4111;50.972;7.072;2023-05-10T07:50:29;16.27;;;10.83;;
8139;SDS011;4111;50.972;7.072;2023-05-10T07:52:56;14.50;;;11.03;;
8139;SDS011;4111;50.972;7.072;2023-05-10T07:55:23;15.63;;;11.03;;
8139;SDS011;4111;50.972;7.072;2023-05-10T07:57:49;17.83;;;11.80;;
8139;SDS011;4111;50.972;7.072;2023-05-10T08:00:17;15.13;;;11.87;;
8139;SDS011;4111;50.972;7.072;2023-05-10T08:02:44;15.20;;;12.03;;
8139;SDS011;4111;50.972;7.072;2023-05-10T08:05:11;18.73;;;12.43;;
8139;SDS011;4111;50.972;7.072;2023-05-10T08:07:38;15.93;;;11.47;;
8139;SDS011;4111;50.972;7.072;2023-05-10T08:10:04;15.33;;;11.10;;
8139;SDS011;4111;50.972;7.072;2023-05-10T08:12:31;14.20;;;11.37;;
8139;SDS011;4111;50.972;7.072;2023-05-10T08:14:58;18.67;;;11.07;;
8139;SDS011;4111;50.972;7.072;2023-05-10T08:17:24;14.33;;;10.43;;
8139;SDS011;4111;50.972;7.072;2023-05-10T08:19:51;14.50;;;11.17;;
8139;SDS011;4111;50.972;7.072;2023-05-10T08:22:17;13.30;;;10.40;;
8139;SDS011;4111;50.972;7.072;2023-05-10T08:24:44;14.03;;;9.90;;
8139;SDS011;4111;50.972;7.072;2023-05-10T08:27:10;14.07;;;10.87;;
8139;SDS011;4111;50.972;7.072;2023-05-10T08:29:37;11.23;;;9.43;;
8139;SDS011;4111;50.972;7.072;2023-05-10T08:32:15;12.37;;;9.67;;
8139;SDS011;4111;50.972;7.072;2023-05-10T08:34:41;13.27;;;9.50;;
8139;SDS011;4111;50.972;7.072;2023-05-10T08:37:08;14.27;;;10.53;;
8139;SDS011;4111;50.972;7.072;2023-05-10T08:39:35;11.57;;;9.33;;
8139;SDS011;4111;50.972;7.072;2023-05-10T08:42:02;11.27;;;8.80;;
8139;SDS011;4111;50.972;7.072;2023-05-10T08:44:32;9.37;;;8.43;;
8139;SDS011;4111;50.972;7.072;2023-05-10T08:47:01;11.03;;;9.20;;
8139;SDS011;4111;50.972;7.072;2023-05-10T08:49:31;10.73;;;8.93;;
8139;SDS011;4111;50.972;7.072;2023-05-10T08:51:59;12.33;;;9.63;;
8139;SDS011;4111;50.972;7.072;2023-05-10T08:54:31;9.77;;;8.43;;
8139;SDS011;4111;50.972;7.072;2023-05-10T08:56:58;9.57;;;8.53;;
8139;SDS011;4111;50.972;7.072;2023-05-10T08:59:25;11.30;;;9.47;;
8139;SDS011;4111;50.972;7.072;2023-05-10T09:01:51;10.53;;;8.70;;
8139;SDS011;4111;50.972;7.072;2023-05-10T09:04:21;11.30;;;8.17;;
8139;SDS011;4111;50.972;7.072;2023-05-10T09:06:49;9.23;;;8.07;;
8139;SDS011;4111;50.972;7.072;2023-05-10T09:09:15;9.87;;;8.27;;
8139;SDS011;4111;50.972;7.072;2023-05-10T09:11:43;11.17;;;8.23;;
8139;SDS011;4111;50.972;7.072;2023-05-10T09:14:10;10.87;;;8.97;;
8139;SDS011;4111;50.972;7.072;2023-05-10T09:16:39;13.23;;;9.70;;
8139;SDS011;4111;50.972;7.072;2023-05-10T09:19:06;57.27;;;21.53;;
8139;SDS011;4111;50.972;7.072;2023-05-10T09:21:34;15.93;;;10.80;;
8139;SDS011;4111;50.972;7.072;2023-05-10T09:24:05;12.20;;;10.53;;
8139;SDS011;4111;50.972;7.072;2023-05-10T09:26:33;14.63;;;11.93;;
8139;SDS011;4111;50.972;7.072;2023-05-10T09:29:02;15.07;;;11.47;;
8139;SDS011;4111;50.972;7.072;2023-05-10T09:31:45;19.53;;;13.57;;
8139;SDS011;4111;50.972;7.072;2023-05-10T09:34:28;25.93;;;15.30;;
8139;SDS011;4111;50.972;7.072;2023-05-10T09:36:56;18.70;;;13.10;;
8139;SDS011;4111;50.972;7.072;2023-05-10T09:39:33;19.23;;;13.97;;
8139;SDS011;4111;50.972;7.072;2023-05-10T09:42:02;19.53;;;14.00;;
8139;SDS011;4111;50.972;7.072;2023-05-10T09:44:33;21.27;;;14.53;;
8139;SDS011;4111;50.972;7.072;2023-05-10T09:47:01;18.60;;;14.13;;
8139;SDS011;4111;50.972;7.072;2023-05-10T09:49:28;19.23;;;14.90;;
8139;SDS011;4111;50.972;7.072;2023-05-10T09:54:28;20.63;;;14.80;;
8139;SDS011;4111;50.972;7.072;2023-05-10T09:56:55;23.40;;;15.60;;
8139;SDS011;4111;50.972;7.072;2023-05-10T09:59:21;24.23;;;16.10;;
8139;SDS011;4111;50.972;7.072;2023-05-10T10:01:57;21.40;;;15.70;;
8139;SDS011;4111;50.972;7.072;2023-05-10T10:04:24;22.53;;;15.40;;
8139;SDS011;4111;50.972;7.072;2023-05-10T10:07:01;24.07;;;16.57;;
8139;SDS011;4111;50.972;7.072;2023-05-10T10:09:29;23.70;;;16.60;;
8139;SDS011;4111;50.972;7.072;2023-05-10T10:11:56;56.93;;;24.73;;
8139;SDS011;4111;50.972;7.072;2023-05-10T10:14:23;60.70;;;26.83;;
8139;SDS011;4111;50.972;7.072;2023-05-10T10:16:51;28.50;;;17.57;;
8139;SDS011;4111;50.972;7.072;2023-05-10T10:19:33;22.27;;;16.23;;
8139;SDS011;4111;50.972;7.072;2023-05-10T10:22:01;21.67;;;15.90;;
8139;SDS011;4111;50.972;7.072;2023-05-10T10:24:28;20.40;;;15.53;;
8139;SDS011;4111;50.972;7.072;2023-05-10T10:26:55;21.33;;;16.67;;
8139;SDS011;4111;50.972;7.072;2023-05-10T10:32:10;19.23;;;13.50;;
8139;SDS011;4111;50.972;7.072;2023-05-10T10:34:46;16.00;;;12.77;;
8139;SDS011;4111;50.972;7.072;2023-05-10T10:37:14;15.03;;;11.63;;
8139;SDS011;4111;50.972;7.072;2023-05-10T10:42:08;16.30;;;12.60;;
8139;SDS011;4111;50.972;7.072;2023-05-10T10:44:37;14.20;;;12.17;;
8139;SDS011;4111;50.972;7.072;2023-05-10T10:49:52;13.77;;;12.00;;
8139;SDS011;4111;50.972;7.072;2023-05-10T10:55:01;15.53;;;11.27;;
8139;SDS011;4111;50.972;7.072;2023-05-10T10:57:48;12.90;;;10.37;;
8139;SDS011;4111;50.972;7.072;2023-05-10T11:00:25;14.03;;;10.30;;
8139;SDS011;4111;50.972;7.072;2023-05-10T11:02:59;11.40;;;10.20;;
8139;SDS011;4111;50.972;7.072;2023-05-10T11:05:43;11.50;;;10.17;;
8139;SDS011;4111;50.972;7.072;2023-05-10T11:08:27;10.77;;;9.63;;
8139;SDS011;4111;50.972;7.072;2023-05-10T11:16:10;11.07;;;9.20;;
8139;SDS011;4111;50.972;7.072;2023-05-10T11:19:03;9.67;;;8.67;;
8139;SDS011;4111;50.972;7.072;2023-05-10T11:21:31;9.07;;;8.13;;
8139;SDS011;4111;50.972;7.072;2023-05-10T11:23:59;11.60;;;9.10;;
8139;SDS011;4111;50.972;7.072;2023-05-10T11:26:31;11.57;;;8.73;;
8139;SDS011;4111;50.972;7.072;2023-05-10T11:28:58;9.83;;;7.87;;
8139;SDS011;4111;50.972;7.072;2023-05-10T11:31:26;10.83;;;7.63;;
8139;SDS011;4111;50.972;7.072;2023-05-10T11:33:54;10.33;;;8.07;;
8139;SDS011;4111;50.972;7.072;2023-05-10T11:36:26;9.53;;;7.73;;
8139;SDS011;4111;50.972;7.072;2023-05-10T11:38:54;9.17;;;7.40;;
8139;SDS011;4111;50.972;7.072;2023-05-10T11:41:22;9.73;;;7.70;;
8139;SDS011;4111;50.972;7.072;2023-05-10T11:43:50;11.13;;;7.80;;
8139;SDS011;4111;50.972;7.072;2023-05-10T11:46:18;8.67;;;6.87;;
8139;SDS011;4111;50.972;7.072;2023-05-10T11:48:53;9.40;;;6.60;;
8139;SDS011;4111;50.972;7.072;2023-05-10T11:51:23;7.40;;;6.17;;
8139;SDS011;4111;50.972;7.072;2023-05-10T11:53:52;7.17;;;6.10;;
8139;SDS011;4111;50.972;7.072;2023-05-10T11:56:20;6.10;;;5.50;;
8139;SDS011;4111;50.972;7.072;2023-05-10T11:58:52;6.07;;;5.47;;
8139;SDS011;4111;50.972;7.072;2023-05-10T12:01:21;5.67;;;5.10;;
8139;SDS011;4111;50.972;7.072;2023-05-10T12:03:49;5.47;;;4.97;;
8139;SDS011;4111;50.972;7.072;2023-05-10T12:06:18;5.30;;;4.90;;
8139;SDS011;4111;50.972;7.072;2023-05-10T12:08:46;6.47;;;5.10;;
8139;SDS011;4111;50.972;7.072;2023-05-10T12:11:14;6.00;;;5.33;;
8139;SDS011;4111;50.972;7.072;2023-05-10T12:13:44;6.23;;;5.63;;
8139;SDS011;4111;50.972;7.072;2023-05-10T12:16:15;5.80;;;5.20;;
8139;SDS011;4111;50.972;7.072;2023-05-10T12:18:47;4.97;;;4.57;;
8139;SDS011;4111;50.972;7.072;2023-05-10T12:21:15;4.90;;;4.40;;
8139;SDS011;4111;50.972;7.072;2023-05-10T12:23:42;4.70;;;4.00;;
8139;SDS011;4111;50.972;7.072;2023-05-10T12:26:09;4.07;;;3.60;;
8139;SDS011;4111;50.972;7.072;2023-05-10T12:28:36;3.37;;;2.80;;
8139;SDS011;4111;50.972;7.072;2023-05-10T12:31:03;2.23;;;2.07;;
8139;SDS011;4111;50.972;7.072;2023-05-10T12:33:35;2.47;;;2.27;;
8139;SDS011;4111;50.972;7.072;2023-05-10T12:36:15;2.40;;;2.20;;
8139;SDS011;4111;50.972;7.072;2023-05-10T12:38:42;2.80;;;2.60;;
8139;SDS011;4111;50.972;7.072;2023-05-10T12:41:11;2.83;;;2.50;;
8139;SDS011;4111;50.972;7.072;2023-05-10T12:43:40;2.73;;;2.53;;
8139;SDS011;4111;50.972;7.072;2023-05-10T12:46:07;2.87;;;2.67;;
8139;SDS011;4111;50.972;7.072;2023-05-10T12:48:35;3.23;;;3.00;;
8139;SDS011;4111;50.972;7.072;2023-05-10T12:51:03;2.70;;;2.50;;
8139;SDS011;4111;50.972;7.072;2023-05-10T12:53:30;4.03;;;2.80;;
8139;SDS011;4111;50.972;7.072;2023-05-10T12:55:57;3.23;;;2.77;;
8139;SDS011;4111;50.972;7.072;2023-05-10T12:58:23;3.57;;;3.27;;
8139;SDS011;4111;50.972;7.072;2023-05-10T13:01:01;3.80;;;3.50;;
8139;SDS011;4111;50.972;7.072;2023-05-10T13:03:28;4.53;;;3.07;;
8139;SDS011;4111;50.972;7.072;2023-05-10T13:05:54;3.43;;;3.13;;
8139;SDS011;4111;50.972;7.072;2023-05-10T13:08:21;3.43;;;2.50;;
8139;SDS011;4111;50.972;7.072;2023-05-10T13:10:48;4.03;;;2.70;;
8139;SDS011;4111;50.972;7.072;2023-05-10T13:13:15;2.70;;;2.50;;
8139;SDS011;4111;50.972;7.072;2023-05-10T13:15:41;2.63;;;2.43;;
8139;SDS011;4111;50.972;7.072;2023-05-10T13:18:07;3.83;;;2.47;;
8139;SDS011;4111;50.972;7.072;2023-05-10T13:20:34;2.67;;;2.43;;
8139;SDS011;4111;50.972;7.072;2023-05-10T13:23:01;3.90;;;1.80;;
8139;SDS011;4111;50.972;7.072;2023-05-10T13:25:28;1.90;;;1.80;;
8139;SDS011;4111;50.972;7.072;2023-05-10T13:27:55;2.40;;;1.90;;
8139;SDS011;4111;50.972;7.072;2023-05-10T13:30:21;1.93;;;1.83;;
8139;SDS011;4111;50.972;7.072;2023-05-10T13:32:48;3.90;;;1.90;;
8139;SDS011;4111;50.972;7.072;2023-05-10T13:35:14;3.13;;;1.97;;
8139;SDS011;4111;50.972;7.072;2023-05-10T13:37:41;3.33;;;2.03;;
8139;SDS011;4111;50.972;7.072;2023-05-10T13:40:08;2.00;;;1.90;;
8139;SDS011;4111;50.972;7.072;2023-05-10T13:42:34;2.70;;;2.00;;
8139;SDS011;4111;50.972;7.072;2023-05-10T13:45:01;2.13;;;2.00;;
8139;SDS011;4111;50.972;7.072;2023-05-10T13:47:27;2.43;;;2.13;;
8139;SDS011;4111;50.972;7.072;2023-05-10T13:49:54;2.63;;;2.20;;
8139;SDS011;4111;50.972;7.072;2023-05-10T13:52:21;2.30;;;2.20;;
8139;SDS011;4111;50.972;7.072;2023-05-10T13:54:47;2.60;;;2.17;;
8139;SDS011;4111;50.972;7.072;2023-05-10T13:57:14;1.60;;;1.50;;
8139;SDS011;4111;50.972;7.072;2023-05-10T13:59:42;1.63;;;1.53;;
8139;SDS011;4111;50.972;7.072;2023-05-10T14:02:09;1.87;;;1.77;;
8139;SDS011;4111;50.972;7.072;2023-05-10T14:04:37;1.43;;;1.43;;
8139;SDS011;4111;50.972;7.072;2023-05-10T14:07:03;1.60;;;1.50;;
8139;SDS011;4111;50.972;7.072;2023-05-10T14:09:30;2.00;;;1.90;;
8139;SDS011;4111;50.972;7.072;2023-05-10T14:11:57;2.00;;;1.80;;
8139;SDS011;4111;50.972;7.072;2023-05-10T14:14:23;1.97;;;1.70;;
8139;SDS011;4111;50.972;7.072;2023-05-10T14:16:50;1.90;;;1.80;;
8139;SDS011;4111;50.972;7.072;2023-05-10T14:19:16;1.70;;;1.60;;
8139;SDS011;4111;50.972;7.072;2023-05-10T14:21:43;1.50;;;1.50;;
8139;SDS011;4111;50.972;7.072;2023-05-10T14:24:10;1.33;;;1.33;;
8139;SDS011;4111;50.972;7.072;2023-05-10T14:26:36;1.87;;;1.70;;
8139;SDS011;4111;50.972;7.072;2023-05-10T14:29:03;1.80;;;1.70;;
8139;SDS011;4111;50.972;7.072;2023-05-10T14:31:30;1.73;;;1.63;;
8139;SDS011;4111;50.972;7.072;2023-05-10T14:33:56;1.40;;;1.30;;
8139;SDS011;4111;50.972;7.072;2023-05-10T14:36:24;3.63;;;1.90;;
8139;SDS011;4111;50.972;7.072;2023-05-10T14:38:50;1.93;;;1.80;;
8139;SDS011;4111;50.972;7.072;2023-05-10T14:41:17;1.70;;;1.60;;
8139;SDS011;4111;50.972;7.072;2023-05-10T14:43:44;1.80;;;1.70;;
8139;SDS011;4111;50.972;7.072;2023-05-10T14:46:10;2.10;;;2.00;;
8139;SDS011;4111;50.972;7.072;2023-05-10T14:48:37;2.20;;;2.00;;
8139;SDS011;4111;50.972;7.072;2023-05-10T14:51:03;2.13;;;1.73;;
8139;SDS011;4111;50.972;7.072;2023-05-10T14:53:30;1.70;;;1.60;;
8139;SDS011;4111;50.972;7.072;2023-05-10T14:55:57;3.20;;;2.00;;
8139;SDS011;4111;50.972;7.072;2023-05-10T14:58:23;1.80;;;1.70;;
8139;SDS011;4111;50.972;7.072;2023-05-10T15:00:49;1.50;;;1.40;;
8139;SDS011;4111;50.972;7.072;2023-05-10T15:03:16;1.97;;;1.70;;
8139;SDS011;4111;50.972;7.072;2023-05-10T15:05:43;1.63;;;1.53;;
8139;SDS011;4111;50.972;7.072;2023-05-10T15:08:10;3.37;;;1.90;;
8139;SDS011;4111;50.972;7.072;2023-05-10T15:10:39;1.63;;;1.57;;
8139;SDS011;4111;50.972;7.072;2023-05-10T15:13:05;3.77;;;2.00;;
8139;SDS011;4111;50.972;7.072;2023-05-10T15:15:32;1.83;;;1.73;;
8139;SDS011;4111;50.972;7.072;2023-05-10T15:17:58;2.13;;;1.93;;
8139;SDS011;4111;50.972;7.072;2023-05-10T15:20:25;5.90;;;5.40;;
8139;SDS011;4111;50.972;7.072;2023-05-10T15:22:51;7.77;;;6.30;;
8139;SDS011;4111;50.972;7.072;2023-05-10T15:25:18;9.10;;;8.03;;
8139;SDS011;4111;50.972;7.072;2023-05-10T15:27:44;9.17;;;8.27;;
8139;SDS011;4111;50.972;7.072;2023-05-10T15:30:11;12.23;;;8.93;;
8139;SDS011;4111;50.972;7.072;2023-05-10T15:32:38;11.30;;;9.30;;
8139;SDS011;4111;50.972;7.072;2023-05-10T15:35:07;12.60;;;9.70;;
8139;SDS011;4111;50.972;7.072;2023-05-10T15:37:34;11.17;;;8.90;;
8139;SDS011;4111;50.972;7.072;2023-05-10T15:40:00;12.33;;;9.27;;
8139;SDS011;4111;50.972;7.072;2023-05-10T15:42:30;12.50;;;10.53;;